createdAt,value
2023-04-17T00:01:24.484Z,55.07
2023-04-17T00:04:33.909Z,54.84
2023-04-17T00:07:41.419Z,55.48
2023-04-17T00:10:56.734Z,55.23
2023-04-17T00:14:10.196Z,55.21
2023-04-17T00:17:16.595Z,55.36
2023-04-17T00:20:24.994Z,55.18
2023-04-17T00:23:31.472Z,55.48
2023-04-17T00:26:37.020Z,55.43
2023-04-17T00:29:43.707Z,55.12
2023-04-17T00:32:49.468Z,55.04
2023-04-17T00:35:58.759Z,55.17
2023-04-17T00:39:04.350Z,55.35
2023-04-17T00:42:11.556Z,55.12
2023-04-17T00:45:17.621Z,55.04
2023-04-17T00:48:26.417Z,55.70
2023-04-17T00:51:36.477Z,55.51
2023-04-17T00:54:43.122Z,55.47
2023-04-17T00:57:51.161Z,54.48
2023-04-17T01:00:58.070Z,55.90
2023-04-17T01:04:05.469Z,55.60
2023-04-17T01:07:14.874Z,56.19
2023-04-17T01:10:20.764Z,56.09
2023-04-17T01:13:27.325Z,56.34
2023-04-17T01:16:34.072Z,56.28
2023-04-17T01:19:40.049Z,56.26
2023-04-17T01:22:52.685Z,56.26
2023-04-17T01:26:00.899Z,56.37
2023-04-17T01:29:07.424Z,56.25
2023-04-17T01:32:14.098Z,56.31
2023-04-17T01:35:20.873Z,56.50
2023-04-17T01:38:26.713Z,57.30
2023-04-17T01:41:36.649Z,56.96
2023-04-17T01:44:42.415Z,56.89
2023-04-17T01:47:49.472Z,56.60
2023-04-17T01:50:55.394Z,56.32
2023-04-17T01:54:02.183Z,56.55
2023-04-17T01:57:10.990Z,56.12
2023-04-17T02:00:19.064Z,56.48
2023-04-17T02:03:25.162Z,56.29
2023-04-17T02:06:32.221Z,56.38
2023-04-17T02:09:38.703Z,56.86
2023-04-17T02:12:49.768Z,56.90
2023-04-17T02:15:56.107Z,56.64
2023-04-17T02:19:02.528Z,56.30
2023-04-17T02:22:09.910Z,56.30
2023-04-17T02:25:16.475Z,56.06
2023-04-17T02:28:24.753Z,56.15
2023-04-17T02:31:31.409Z,55.59
2023-04-17T02:34:37.132Z,55.62
2023-04-17T02:37:43.787Z,55.96
2023-04-17T02:40:49.331Z,56.08
2023-04-17T02:43:58.270Z,55.76
2023-04-17T02:47:06.725Z,55.78
2023-04-17T02:50:15.288Z,55.95
2023-04-17T02:53:33.552Z,55.93
2023-04-17T02:56:42.516Z,56.40
2023-04-17T02:59:50.805Z,56.52
2023-04-17T03:02:57.631Z,56.75
2023-04-17T03:06:04.096Z,57.44
2023-04-17T03:09:12.562Z,57.59
2023-04-17T03:12:20.523Z,58.50
2023-04-17T03:15:29.665Z,59.69
2023-04-17T03:18:35.870Z,60.10
2023-04-17T03:21:42.451Z,60.34
2023-04-17T03:24:49.244Z,60.46
2023-04-17T03:27:56.660Z,60.10
2023-04-17T03:31:12.813Z,59.86
2023-04-17T03:34:20.255Z,59.35
2023-04-17T03:37:27.071Z,58.71
2023-04-17T03:40:33.891Z,58.22
2023-04-17T03:43:39.641Z,57.89
2023-04-17T03:46:51.109Z,58.23
2023-04-17T03:49:56.740Z,57.93
2023-04-17T03:53:04.643Z,57.78
2023-04-17T03:56:11.832Z,57.96
2023-04-17T03:59:23.973Z,58.20
2023-04-17T04:02:32.265Z,58.55
2023-04-17T04:05:39.073Z,58.25
2023-04-17T04:08:47.021Z,58.33
2023-04-17T04:11:53.766Z,58.25
2023-04-17T04:15:00.754Z,58.13
2023-04-17T04:18:11.235Z,57.93
2023-04-17T04:21:16.919Z,57.97
2023-04-17T04:24:25.746Z,57.85
2023-04-17T04:27:33.162Z,58.00
2023-04-17T04:30:41.516Z,57.96
2023-04-17T04:33:56.928Z,58.04
2023-04-17T04:37:03.652Z,58.10
2023-04-17T04:40:17.279Z,58.24
2023-04-17T04:43:25.079Z,58.20
2023-04-17T04:46:33.196Z,58.41
2023-04-17T04:49:43.037Z,58.28
2023-04-17T04:52:49.281Z,58.78
2023-04-17T04:56:10.802Z,58.45
2023-04-17T04:59:17.191Z,58.98
2023-04-17T05:02:30.430Z,59.50
2023-04-17T05:05:40.391Z,59.72
2023-04-17T05:08:48.803Z,59.87
2023-04-17T05:11:55.332Z,60.04
2023-04-17T05:15:02.131Z,60.33
2023-04-17T05:18:08.384Z,60.58
2023-04-17T05:21:17.868Z,59.92
2023-04-17T05:24:27.567Z,59.81
2023-04-17T05:27:34.210Z,59.58
2023-04-17T05:30:40.331Z,59.52
2023-04-17T05:34:13.100Z,59.09
2023-04-17T05:37:22.180Z,59.56
2023-04-17T05:40:28.741Z,59.11
2023-04-17T05:43:34.324Z,58.80
2023-04-17T05:46:40.755Z,58.71
2023-04-17T05:49:46.808Z,58.36
2023-04-17T05:52:56.188Z,58.23
2023-04-17T05:56:05.111Z,58.12
2023-04-17T05:59:14.440Z,57.94
2023-04-17T06:02:21.259Z,57.77
2023-04-17T06:05:28.360Z,57.60
2023-04-17T06:08:36.640Z,57.51
2023-04-17T06:11:44.226Z,57.53
2023-04-17T06:14:50.965Z,57.65
2023-04-17T06:18:00.947Z,57.72
2023-04-17T06:21:06.669Z,56.90
2023-04-17T06:24:15.740Z,56.41
2023-04-17T06:27:25.563Z,56.28
2023-04-17T06:30:33.112Z,55.71
2023-04-17T06:33:38.839Z,55.63
2023-04-17T06:36:46.687Z,55.78
2023-04-17T06:39:59.064Z,55.82
2023-04-17T06:43:05.814Z,54.94
2023-04-17T06:46:12.846Z,54.93
2023-04-17T06:49:19.285Z,54.65
2023-04-17T06:52:25.079Z,53.61
2023-04-17T06:55:35.396Z,52.55
2023-04-17T06:58:44.576Z,52.28
2023-04-17T07:01:51.274Z,51.40
2023-04-17T07:04:57.159Z,50.55
2023-04-17T07:08:03.788Z,49.10
2023-04-17T07:11:12.070Z,48.35
2023-04-17T07:14:18.446Z,48.06
2023-04-17T07:17:24.183Z,47.83
2023-04-17T07:20:30.885Z,48.39
2023-04-17T07:23:36.512Z,48.28
2023-04-17T07:26:45.947Z,47.63
2023-04-17T07:29:54.875Z,48.72
2023-04-17T07:33:01.745Z,49.43
2023-04-17T07:36:09.432Z,49.97
2023-04-17T07:39:16.201Z,50.31
2023-04-17T07:42:25.035Z,49.16
2023-04-17T07:45:31.613Z,48.34
2023-04-17T07:48:38.109Z,46.76
2023-04-17T07:51:44.964Z,44.79
2023-04-17T07:54:50.852Z,44.21
2023-04-17T07:58:04.114Z,42.54
2023-04-17T08:01:10.063Z,42.28
2023-04-17T08:04:17.158Z,41.59
2023-04-17T08:07:23.106Z,41.03
2023-04-17T08:10:30.198Z,41.95
2023-04-17T08:13:38.504Z,40.65
2023-04-17T08:16:45.175Z,39.80
2023-04-17T08:19:51.150Z,39.47
2023-04-17T08:22:57.589Z,40.24
2023-04-17T08:26:03.354Z,39.03
2023-04-17T08:29:12.487Z,39.58
2023-04-17T08:32:18.433Z,39.72
2023-04-17T08:35:25.647Z,40.65
2023-04-17T08:38:31.784Z,41.36
2023-04-17T08:41:52.318Z,42.01
2023-04-17T08:45:03.256Z,42.73
2023-04-17T08:48:10.004Z,41.92
2023-04-17T08:51:16.898Z,40.28
2023-04-17T08:54:23.556Z,38.90
2023-04-17T08:57:29.179Z,37.62
2023-04-17T09:00:41.017Z,37.25
2023-04-17T09:03:49.559Z,37.59
2023-04-17T09:06:56.373Z,36.14
2023-04-17T09:10:01.954Z,36.89
2023-04-17T09:13:09.353Z,36.30
2023-04-17T09:16:20.203Z,36.88
2023-04-17T09:19:26.827Z,36.27
2023-04-17T09:22:32.574Z,37.32
2023-04-17T09:25:39.048Z,37.38
2023-04-17T09:29:04.015Z,37.15
2023-04-17T09:32:20.442Z,36.15
2023-04-17T09:35:29.085Z,36.77
2023-04-17T09:38:41.014Z,36.75
2023-04-17T09:41:46.686Z,37.16
2023-04-17T09:44:53.101Z,37.19
2023-04-17T09:48:01.422Z,37.48
2023-04-17T09:51:09.133Z,38.18
2023-04-17T09:54:17.691Z,37.07
2023-04-17T09:57:24.575Z,36.44
2023-04-17T10:00:31.710Z,36.15
2023-04-17T10:03:43.315Z,37.30
2023-04-17T10:06:49.572Z,36.62
2023-04-17T10:09:56.090Z,36.22
2023-04-17T10:13:05.639Z,36.03
2023-04-17T10:16:12.172Z,36.66
2023-04-17T10:19:32.806Z,37.47
2023-04-17T10:22:41.573Z,37.27
2023-04-17T10:25:47.753Z,37.28
2023-04-17T10:28:59.119Z,38.58
2023-04-17T10:32:29.144Z,39.33
2023-04-17T10:35:41.547Z,40.13
2023-04-17T10:38:47.312Z,39.94
2023-04-17T10:42:06.296Z,39.90
2023-04-17T10:45:22.636Z,40.79
2023-04-17T10:48:33.289Z,41.44
2023-04-17T10:51:50.040Z,41.68
2023-04-17T10:55:13.744Z,42.37
2023-04-17T10:58:19.345Z,43.02
2023-04-17T11:01:30.182Z,43.61
2023-04-17T11:04:36.785Z,44.11
2023-04-17T11:07:50.973Z,45.30
2023-04-17T11:10:58.681Z,45.60
2023-04-17T11:14:12.141Z,49.28
2023-04-17T11:17:19.864Z,51.50
2023-04-17T11:20:28.729Z,52.91
2023-04-17T11:23:37.856Z,53.82
2023-04-17T11:26:48.108Z,53.39
2023-04-17T11:29:53.738Z,53.88
2023-04-17T11:33:06.570Z,53.59
2023-04-17T11:36:13.290Z,53.52
2023-04-17T11:39:25.701Z,53.26
2023-04-17T11:42:31.310Z,53.21
2023-04-17T11:45:40.171Z,52.34
2023-04-17T11:48:50.259Z,52.00
2023-04-17T11:51:56.878Z,53.21
2023-04-17T11:55:05.135Z,54.76
2023-04-17T11:58:14.415Z,55.15
2023-04-17T12:01:25.020Z,56.46
2023-04-17T12:04:34.359Z,57.90
2023-04-17T12:07:40.438Z,59.81
2023-04-17T12:10:49.461Z,59.89
2023-04-17T12:13:56.164Z,59.13
2023-04-17T12:17:03.105Z,58.21
2023-04-17T12:20:10.674Z,58.65
2023-04-17T12:23:17.058Z,59.69
2023-04-17T12:26:25.508Z,59.39
2023-04-17T12:29:42.838Z,59.92
2023-04-17T12:32:50.114Z,59.24
2023-04-17T12:35:57.604Z,59.04
2023-04-17T12:39:03.988Z,59.10
2023-04-17T12:42:13.231Z,58.67
2023-04-17T12:45:19.888Z,57.96
2023-04-17T12:48:26.390Z,57.45
2023-04-17T12:51:37.941Z,58.18
2023-04-17T12:54:46.892Z,57.80
2023-04-17T12:57:55.220Z,58.84
2023-04-17T13:01:01.716Z,59.38
2023-04-17T13:04:08.137Z,59.98
2023-04-17T13:07:14.767Z,59.90
2023-04-17T13:10:20.642Z,60.08
2023-04-17T13:13:29.995Z,60.15
2023-04-17T13:16:35.649Z,60.64
2023-04-17T13:19:42.502Z,60.85
2023-04-17T13:22:48.189Z,60.25
2023-04-17T13:25:54.609Z,60.61
2023-04-17T13:29:02.868Z,60.69
2023-04-17T13:32:09.950Z,60.01
2023-04-17T13:35:15.961Z,59.50
2023-04-17T13:38:22.472Z,58.15
2023-04-17T13:41:28.375Z,58.97
2023-04-17T13:44:37.562Z,59.07
2023-04-17T13:47:44.871Z,59.55
2023-04-17T13:50:51.380Z,59.79
2023-04-17T13:53:58.905Z,60.35
2023-04-17T13:57:06.685Z,60.10
2023-04-17T14:00:18.567Z,60.36
2023-04-17T14:03:25.232Z,60.42
2023-04-17T14:06:31.445Z,59.65
2023-04-17T14:09:39.039Z,60.16
2023-04-17T14:12:44.771Z,60.50
2023-04-17T14:15:55.283Z,59.78
2023-04-17T14:19:12.351Z,60.17
2023-04-17T14:22:20.463Z,59.06
2023-04-17T14:25:26.309Z,59.55
2023-04-17T14:28:32.836Z,59.76
2023-04-17T14:31:41.288Z,59.39
2023-04-17T14:34:48.690Z,60.05
2023-04-17T14:37:54.398Z,59.62
2023-04-17T14:41:01.073Z,59.55
2023-04-17T14:44:06.984Z,59.01
2023-04-17T14:47:16.594Z,59.33
2023-04-17T14:50:22.431Z,59.97
2023-04-17T14:53:29.054Z,60.57
2023-04-17T14:56:34.805Z,60.82
2023-04-17T14:59:41.581Z,59.99
2023-04-17T15:02:53.122Z,59.21
2023-04-17T15:06:01.709Z,59.39
2023-04-17T15:09:07.622Z,59.12
2023-04-17T15:12:14.078Z,57.59
2023-04-17T15:15:19.741Z,58.07
2023-04-17T15:18:29.000Z,58.80
2023-04-17T15:21:34.674Z,58.29
2023-04-17T15:24:41.136Z,58.49
2023-04-17T15:27:49.104Z,59.02
2023-04-17T15:30:55.727Z,58.69
2023-04-17T15:34:03.942Z,59.63
2023-04-17T15:37:11.280Z,59.66
2023-04-17T15:40:16.924Z,59.77
2023-04-17T15:43:25.653Z,60.32
2023-04-17T15:46:32.197Z,60.55
2023-04-17T15:49:41.417Z,61.59
2023-04-17T15:52:47.508Z,61.85
2023-04-17T15:55:55.750Z,62.44
2023-04-17T15:59:01.357Z,62.29
2023-04-17T16:02:08.003Z,62.48
2023-04-17T16:05:17.724Z,62.35
2023-04-17T16:08:24.245Z,62.21
2023-04-17T16:11:30.577Z,62.26
2023-04-17T16:14:36.938Z,62.25
2023-04-17T16:17:43.797Z,62.34
2023-04-17T16:20:52.941Z,61.83
2023-04-17T16:23:58.913Z,61.62
2023-04-17T16:27:05.334Z,61.70
2023-04-17T16:30:13.461Z,61.51
2023-04-17T16:33:19.797Z,61.24
2023-04-17T16:36:28.116Z,61.44
2023-04-17T16:39:34.506Z,61.50
2023-04-17T16:42:40.370Z,61.51
2023-04-17T16:45:46.863Z,61.59
2023-04-17T16:48:52.824Z,61.46
2023-04-17T16:52:02.078Z,61.56
2023-04-17T16:55:09.210Z,61.63
2023-04-17T16:58:15.651Z,62.09
2023-04-17T17:01:21.286Z,62.05
2023-04-17T17:04:27.779Z,62.28
2023-04-17T17:07:36.133Z,62.89
2023-04-17T17:10:42.700Z,63.24
2023-04-17T17:13:51.163Z,63.59
2023-04-17T17:16:58.056Z,63.59
2023-04-17T17:20:03.901Z,63.57
2023-04-17T17:23:12.849Z,63.92
2023-04-17T17:26:20.904Z,63.79
2023-04-17T17:29:27.482Z,63.85
2023-04-17T17:32:33.302Z,64.10
2023-04-17T17:35:39.733Z,64.14
2023-04-17T17:38:51.132Z,64.30
2023-04-17T17:41:58.140Z,63.86
2023-04-17T17:45:03.957Z,64.17
2023-04-17T17:48:10.709Z,63.95
2023-04-17T17:51:16.482Z,63.83
2023-04-17T17:54:25.522Z,63.70
2023-04-17T17:57:42.243Z,63.74
2023-04-17T18:00:55.127Z,63.73
2023-04-17T18:04:01.180Z,63.97
2023-04-17T18:07:08.259Z,64.23
2023-04-17T18:10:17.174Z,64.70
2023-04-17T18:13:26.566Z,64.93
2023-04-17T18:16:33.900Z,65.18
2023-04-17T18:19:42.170Z,65.95
2023-04-17T18:22:48.111Z,66.30
2023-04-17T18:26:03.797Z,66.30
2023-04-17T18:29:09.849Z,66.79
2023-04-17T18:32:16.328Z,66.19
2023-04-17T18:35:21.985Z,66.43
2023-04-17T18:38:28.590Z,65.50
2023-04-17T18:41:37.267Z,66.21
2023-04-17T18:44:43.890Z,65.75
2023-04-17T18:47:49.916Z,65.96
2023-04-17T18:50:56.511Z,66.02
2023-04-17T18:54:03.006Z,66.40
2023-04-17T18:57:12.179Z,66.63
2023-04-17T19:00:20.731Z,66.99
2023-04-17T19:03:27.718Z,66.96
2023-04-17T19:06:34.199Z,67.14
2023-04-17T19:09:40.799Z,67.01
2023-04-17T19:12:49.177Z,67.33
2023-04-17T19:15:55.827Z,67.80
2023-04-17T19:19:01.568Z,67.57
2023-04-17T19:22:08.007Z,67.73
2023-04-17T19:25:14.166Z,67.94
2023-04-17T19:28:23.405Z,67.89
2023-04-17T19:31:29.403Z,67.83
2023-04-17T19:34:36.009Z,68.06
2023-04-17T19:37:41.611Z,67.78
2023-04-17T19:41:12.054Z,67.37
2023-04-17T19:44:20.349Z,67.74
2023-04-17T19:47:27.001Z,67.67
2023-04-17T19:50:33.391Z,67.75
2023-04-17T19:53:42.407Z,67.76
2023-04-17T19:56:48.081Z,68.16
2023-04-17T19:59:57.173Z,67.85
2023-04-17T20:03:02.844Z,67.64
2023-04-17T20:06:10.106Z,67.64
2023-04-17T20:09:17.008Z,67.50
2023-04-17T20:12:25.602Z,67.72
2023-04-17T20:15:34.424Z,67.42
2023-04-17T20:18:41.963Z,67.35
2023-04-17T20:21:47.912Z,67.26
2023-04-17T20:24:55.998Z,66.99
2023-04-17T20:28:02.968Z,66.82
2023-04-17T20:31:12.149Z,67.30
2023-04-17T20:34:18.013Z,66.43
2023-04-17T20:37:24.619Z,66.42
2023-04-17T20:40:30.579Z,66.69
2023-04-17T20:43:37.155Z,66.77
2023-04-17T20:46:45.363Z,67.07
2023-04-17T20:49:51.855Z,67.05
2023-04-17T20:52:57.430Z,66.80
2023-04-17T20:56:03.951Z,66.49
2023-04-17T20:59:09.627Z,66.49
2023-04-17T21:02:19.668Z,66.43
2023-04-17T21:05:25.660Z,66.66
2023-04-17T21:08:32.162Z,66.71
2023-04-17T21:11:37.955Z,67.16
2023-04-17T21:14:44.534Z,67.16
2023-04-17T21:17:52.696Z,67.08
2023-04-17T21:20:59.269Z,66.82
2023-04-17T21:24:04.947Z,67.10
2023-04-17T21:27:11.398Z,67.04
2023-04-17T21:30:17.882Z,66.74
2023-04-17T21:33:26.949Z,66.80
2023-04-17T21:36:32.558Z,66.92
2023-04-17T21:39:39.552Z,67.04
2023-04-17T21:42:45.332Z,67.17
2023-04-17T21:45:51.815Z,67.04
2023-04-17T21:49:00.151Z,67.27
2023-04-17T21:52:06.625Z,67.45
2023-04-17T21:55:13.067Z,67.51
2023-04-17T21:58:19.446Z,67.92
2023-04-17T22:01:25.143Z,67.60
2023-04-17T22:04:34.271Z,67.85
2023-04-17T22:07:53.546Z,67.91
2023-04-17T22:11:01.231Z,67.87
2023-04-17T22:14:06.916Z,68.19
2023-04-17T22:17:13.425Z,67.90
2023-04-17T22:20:22.769Z,67.86
2023-04-17T22:23:29.394Z,68.14
2023-04-17T22:26:35.120Z,68.15
2023-04-17T22:29:41.673Z,67.90
2023-04-17T22:32:47.250Z,68.03
2023-04-17T22:35:56.254Z,67.99
2023-04-17T22:39:01.942Z,67.63
2023-04-17T22:42:08.454Z,67.98
2023-04-17T22:45:14.341Z,68.05
2023-04-17T22:48:23.932Z,67.99
2023-04-17T22:51:33.051Z,68.00
2023-04-17T22:54:40.310Z,67.82
2023-04-17T22:57:46.319Z,67.88
2023-04-17T23:00:52.937Z,67.65
2023-04-17T23:03:58.469Z,67.73
2023-04-17T23:07:07.473Z,67.54
2023-04-17T23:10:13.589Z,67.48
2023-04-17T23:13:20.019Z,67.72
2023-04-17T23:16:25.788Z,66.85
2023-04-17T23:19:32.255Z,67.11
2023-04-17T23:22:40.664Z,67.48
2023-04-17T23:25:47.342Z,67.44
2023-04-17T23:28:53.021Z,67.60
2023-04-17T23:31:59.431Z,67.36
2023-04-17T23:35:05.020Z,67.33
2023-04-17T23:38:14.056Z,67.85
2023-04-17T23:41:19.665Z,67.95
2023-04-17T23:44:26.585Z,67.34
2023-04-17T23:47:32.386Z,67.86
2023-04-17T23:50:38.896Z,68.03
2023-04-17T23:53:47.255Z,68.14
2023-04-17T23:56:53.762Z,68.07
2023-04-17T23:59:59.318Z,68.33
